Central Sonoma County Latest

37 Stations

15 Minute Data | America/Los_Angeles
as of 9/3/26 5:07 PM PDT
Station Date Time Temp (°F) RH (%) Dew Pt (°F) Wind Spd (mph) Wind Dir (°) Wind Gust (mph) Latest Rain (In) Daily Rain (In) Daily Max Temp (°F) Daily Min Temp (°F)
Windsor-NW (Ranch 8) 9/3/26 1700 64.6   7.8 80   23 58.4   1.9 0.0   0.0 SE | 129 0.0   0.0 0.00 0.18 71.0   3.7 58.8   0.4
Windsor-East (Ranch 16) 9/3/26 1700 62.0   11.6 90   45 59.0   7.8 4.8   0.9 SE | 131 8.7   3.7 0.00 0.08 70.4   5.1 59.1   0.0
Mark West-North (Ranch 14) 9/3/26 1700 62.3   11.0 88   46 58.9   9.6 2.4   0.2 SE | 130 6.8   1.2 0.00 0.10 70.6   4.8 59.8   0.2
Windsor-SE (Silk Rd) 9/3/26 1700 64.2   7.8 81   32 58.4   6.2 2.7   2.9 SSE | 162 6.9   4.3 0.00 0.10 71.4   2.5 58.5   0.4
Fulton-NW (Ranch 5) 9/3/26 1700 61.9   9.7 92   40 59.5   6.8 6.5   0.2 ESE | 116 9.9   1.4 0.00 0.11 69.8   4.4 59.6   0.1
Bisordi (Fulton) 9/3/26 1700 62.4   9.6 91   36 59.9   4.6 2.0   3.5 SSE | 148 5.8   6.1 0.00 0.13 69.5   4.2 59.2   0.5
Windsor-South (Laughlin Rd) 9/3/26 1700 62.9   10.5 86   39 58.6   7.0 - - - 0.00 0.06 71.2   3.5 58.6   0.4
Fulton-SE (Barnes Rd) 9/3/26 1700 62.4   10.4 92   41 60.0   6.5 0.0   0.0 N | 0 0.0   0.0 0.01 0.18 70.0   4.5 60.1   0.2
Fulton-SW (Ranch 21) 9/3/26 1700 61.7   9.6 90   39 58.9   6.6 4.7   3.1 S | 169 8.9   4.8 0.00 0.11 70.0   3.0 57.4   2.0
NW Santa Rosa (Piner Road) 9/3/26 1700 62.2   9.0 100   40 62.2   5.5 2.0   3.5 S | 176 5.0   6.9 0.00 0.00 69.9   4.2 56.2   3.4
River Rd South (Denner Ranch) 9/3/26 1700 61.8   10.2 0   50 -57.7   110.2 7.1   2.5 SE | 144 10.7   5.0 - - 69.2   4.4 56.0   1.7
West Santa Rosa (LOV Vineyard) 8/26/26 0900 53.3   5.2 97   6 52.4   3.5 1.0   0.1 SW | 224 3.6   0.0 0.00 0.00 53.6   5.2 50.2   1.8
Guerneville Rd (Prokopakis) 9/3/26 1700 63.2   12.5 90   43 60.3   6.2 - - - 0.00 0.07 75.2   1.8 56.9   2.3
SunnyView Vineyard (SCWC) 9/3/26 1700 61.5   9.8 91   39 58.7   6.3 2.2   4.2 SE | 143 6.0   6.0 0.01 0.18 70.3   3.5 55.5   3.7
Guerneville Rd West (Balletto) 9/3/26 1700 62.3   9.2 94   35 60.5   4.3 3.4   3.6 S | 172 6.0   6.1 0.00 0.19 70.7   2.7 58.2   0.9
Sanchietti Ranch 9/3/26 1700 62.9   9.3 92   30 60.5   2.2 3.3   3.7 SSE | 163 6.1   8.2 0.00 0.20 71.6   2.9 58.5   0.0
Occidental Rd (Sebastopol) 9/3/26 1700 62.4   9.5 100   30 62.4   0.6 3.0   2.7 S | 178 6.6   6.6 0.00 0.14 70.7   3.7 57.5   0.1
Harper's Rest (Windsor-West) 9/3/26 1700 64.4   9.5 75   28 56.2   3.9 2.9   0.9 SSE | 165 7.8   1.5 0.00 0.14 72.9   2.8 55.8   2.3
Lower Westside Rd (Ranch 12) 9/3/26 1700 64.8   7.1 76   25 57.2   4.5 2.2   3.5 SSE | 151 6.1   4.7 0.00 0.14 70.4   2.8 55.6   3.2
Guerneville (Laughlin Rd) 9/3/26 1700 66.5   4.1 77   18 59.1   3.3 5.6   0.2 SSE | 152 10.2   3.1 0.00 0.40 69.5   2.9 56.4   1.6
Korbel (Winery) 9/3/26 1700 66.6   3.6 76   16 58.9   3.1 2.2   0.4 SW | 233 5.8   4.7 0.00 0.31 70.7   1.3 57.4   1.8
Forestville (Shone Farms) 9/3/26 1700 64.2   6.8 82   28 58.6   5.3 3.6   0.8 S | 169 7.8   4.3 0.00 0.10 70.4   3.7 57.7   0.1
Forestville-NE (Ranch 30) 9/3/26 1700 64.0   7.0 86   30 59.6   5.1 4.6   2.0 SSE | 160 8.8   4.1 0.00 0.10 70.7   3.5 56.6   1.5
Foggy Bend (Ranch 41) 9/3/26 1700 65.0   6.0 82   22 59.4   3.0 3.8   1.7 SSE | 164 7.0   6.9 0.00 0.13 69.9   3.3 57.7   1.6
Last Stop 9/3/26 1700 64.5   5.8 82   25 59.1   4.3 3.1   1.5 SE | 143 6.7   3.0 0.00 0.10 69.8   2.7 57.7   1.2
Green Valley Vineyard 9/3/26 1700 62.9   6.9 86   29 58.8   4.5 2.6   2.1 S | 172 6.6   4.4 0.00 0.15 69.9   2.3 56.9   1.3
Park Royal 9/3/26 1700 62.1   9.7 92   40 59.7   6.5 - - - 0.00 0.14 70.4   3.5 58.2   1.2
Merino 9/3/26 1700 63.0   12.5 93   40 60.9   3.9 2.5   1.4 SSE | 168 5.0   5.8 0.00 0.24 72.7   4.4 56.8   0.5
Green Valley (Sanchietti) 9/3/26 1700 64.2   8.3 - - - - - - - 71.4   3.1 56.0   2.8
Keefer Ranch (Green Valley) 9/3/26 1700 63.8   7.1 86   27 59.6   3.6 - - - 0.00 0.16 70.5   2.8 57.4   1.6
Graton-West (Dutton Ranch) 9/3/26 1615 63.7   7.5 100   33 63.8   3.9 2.3   2.1 SSE | 164 4.8   4.2 0.00 0.27 72.4   1.1 57.6   1.7
Graton-South (Mill Station Rd) 9/3/26 1700 61.5   8.4 91   31 59.0   3.6 1.0   2.0 S | 188 3.3   3.3 0.00 0.24 69.6   1.3 58.0   0.5
Occidental (Horseshoe Bend) 9/3/26 1700 60.6   5.2 95   24 59.0   3.1 - - - 0.00 0.36 67.2   1.5 58.9   1.0
Sexton Valley (Jacqueline's Blk) 9/3/26 1700 62.6   7.0 93   29 60.5   3.7 1.1   3.0 SSW | 202 3.1   8.4 0.00 0.01 70.8   1.5 59.2   2.7
Sebastopol Hills (Burnside Rd) 9/3/26 1645 60.6   7.0 96   27 59.4   2.4 3.0   2.0 S | 190 5.0   5.5 0.00 0.00 67.3   2.0 59.5   1.5
Pleasant Hill 9/3/26 1700 62.5   8.6 89   30 59.3   3.0 1.9   3.4 SW | 218 5.1   7.1 0.00 0.27 72.4   1.7 60.0   3.7
Seaview/Fort Ross (Hirsch) 9/3/26 1700 58.4   2.7 89   10 55.2   0.8 2.2   0.0 W | 262 5.3   0.8 0.00 0.00 60.9   3.8 56.6   1.4
Max     66.6 100 63.8 7.1 - 10.7 0.01 0.40 75.2 60.1
Avg     63.0 86 56.1 3.0 - 6.2 0.00 - - -
Min     58.4 0 -57.7 0.0 - 0.0 0.00 0.00 60.9 55.5